sensor_id;sensor_type;location;lat;lon;timestamp;P1;durP1;ratioP1;P2;durP2;ratioP2
72864;SDS011;61000;48.120;11.548;2023-09-18T00:02:07;4.75;;;4.10;;
72864;SDS011;61000;48.120;11.548;2023-09-18T00:04:34;6.63;;;4.03;;
72864;SDS011;61000;48.120;11.548;2023-09-18T00:07:00;6.55;;;3.85;;
72864;SDS011;61000;48.120;11.548;2023-09-18T00:09:27;4.38;;;3.97;;
72864;SDS011;61000;48.120;11.548;2023-09-18T00:11:54;4.97;;;3.70;;
72864;SDS011;61000;48.120;11.548;2023-09-18T00:14:21;5.15;;;3.88;;
72864;SDS011;61000;48.120;11.548;2023-09-18T00:16:50;6.63;;;3.63;;
72864;SDS011;61000;48.120;11.548;2023-09-18T00:19:17;4.80;;;4.15;;
72864;SDS011;61000;48.120;11.548;2023-09-18T00:21:43;4.25;;;3.80;;
72864;SDS011;61000;48.120;11.548;2023-09-18T00:24:10;6.45;;;4.22;;
72864;SDS011;61000;48.120;11.548;2023-09-18T00:26:37;4.38;;;3.85;;
72864;SDS011;61000;48.120;11.548;2023-09-18T00:29:04;5.88;;;3.78;;
72864;SDS011;61000;48.120;11.548;2023-09-18T00:31:31;5.93;;;3.63;;
72864;SDS011;61000;48.120;11.548;2023-09-18T00:33:59;4.88;;;3.47;;
72864;SDS011;61000;48.120;11.548;2023-09-18T00:36:26;5.60;;;3.72;;
72864;SDS011;61000;48.120;11.548;2023-09-18T00:38:53;6.55;;;4.28;;
72864;SDS011;61000;48.120;11.548;2023-09-18T00:41:19;4.43;;;4.00;;
72864;SDS011;61000;48.120;11.548;2023-09-18T00:43:46;5.00;;;3.70;;
72864;SDS011;61000;48.120;11.548;2023-09-18T00:46:13;4.38;;;3.75;;
72864;SDS011;61000;48.120;11.548;2023-09-18T00:48:40;6.15;;;3.78;;
72864;SDS011;61000;48.120;11.548;2023-09-18T00:51:08;7.65;;;3.80;;
72864;SDS011;61000;48.120;11.548;2023-09-18T00:53:36;4.18;;;3.47;;
72864;SDS011;61000;48.120;11.548;2023-09-18T00:56:04;4.13;;;3.70;;
72864;SDS011;61000;48.120;11.548;2023-09-18T00:58:32;4.65;;;3.70;;
72864;SDS011;61000;48.120;11.548;2023-09-18T01:00:59;3.72;;;3.40;;
72864;SDS011;61000;48.120;11.548;2023-09-18T01:03:26;6.10;;;3.90;;
72864;SDS011;61000;48.120;11.548;2023-09-18T01:05:53;5.15;;;3.58;;
72864;SDS011;61000;48.120;11.548;2023-09-18T01:08:23;3.55;;;3.25;;
72864;SDS011;61000;48.120;11.548;2023-09-18T01:10:53;7.28;;;3.67;;
72864;SDS011;61000;48.120;11.548;2023-09-18T01:13:28;4.65;;;3.38;;
72864;SDS011;61000;48.120;11.548;2023-09-18T01:16:02;3.75;;;3.35;;
72864;SDS011;61000;48.120;11.548;2023-09-18T01:18:34;4.47;;;3.72;;
72864;SDS011;61000;48.120;11.548;2023-09-18T01:21:00;3.83;;;3.53;;
72864;SDS011;61000;48.120;11.548;2023-09-18T01:23:29;4.18;;;3.70;;
72864;SDS011;61000;48.120;11.548;2023-09-18T01:25:55;5.45;;;3.35;;
72864;SDS011;61000;48.120;11.548;2023-09-18T01:28:22;5.35;;;3.67;;
72864;SDS011;61000;48.120;11.548;2023-09-18T01:30:49;5.35;;;3.88;;
72864;SDS011;61000;48.120;11.548;2023-09-18T01:33:16;6.55;;;3.67;;
72864;SDS011;61000;48.120;11.548;2023-09-18T01:35:45;5.25;;;3.88;;
72864;SDS011;61000;48.120;11.548;2023-09-18T01:38:12;5.68;;;3.38;;
72864;SDS011;61000;48.120;11.548;2023-09-18T01:40:40;4.45;;;3.58;;
72864;SDS011;61000;48.120;11.548;2023-09-18T01:43:08;3.90;;;3.50;;
72864;SDS011;61000;48.120;11.548;2023-09-18T01:45:35;4.30;;;3.90;;
72864;SDS011;61000;48.120;11.548;2023-09-18T01:48:04;4.82;;;3.65;;
72864;SDS011;61000;48.120;11.548;2023-09-18T01:50:32;5.63;;;3.78;;
72864;SDS011;61000;48.120;11.548;2023-09-18T01:52:58;3.80;;;3.35;;
72864;SDS011;61000;48.120;11.548;2023-09-18T01:55:25;4.60;;;3.95;;
72864;SDS011;61000;48.120;11.548;2023-09-18T01:57:55;5.25;;;3.90;;
72864;SDS011;61000;48.120;11.548;2023-09-18T02:00:22;4.60;;;3.67;;
72864;SDS011;61000;48.120;11.548;2023-09-18T02:02:49;3.92;;;3.50;;
72864;SDS011;61000;48.120;11.548;2023-09-18T02:05:16;5.43;;;3.70;;
72864;SDS011;61000;48.120;11.548;2023-09-18T02:07:43;8.18;;;3.97;;
72864;SDS011;61000;48.120;11.548;2023-09-18T02:10:09;3.85;;;3.47;;
72864;SDS011;61000;48.120;11.548;2023-09-18T02:12:38;3.42;;;3.13;;
72864;SDS011;61000;48.120;11.548;2023-09-18T02:15:07;6.45;;;3.20;;
72864;SDS011;61000;48.120;11.548;2023-09-18T02:17:36;4.50;;;3.10;;
72864;SDS011;61000;48.120;11.548;2023-09-18T02:20:03;3.97;;;3.28;;
72864;SDS011;61000;48.120;11.548;2023-09-18T02:22:36;4.68;;;3.58;;
72864;SDS011;61000;48.120;11.548;2023-09-18T02:25:05;5.10;;;3.10;;
72864;SDS011;61000;48.120;11.548;2023-09-18T02:27:33;7.38;;;3.65;;
72864;SDS011;61000;48.120;11.548;2023-09-18T02:30:00;8.00;;;3.63;;
72864;SDS011;61000;48.120;11.548;2023-09-18T02:32:28;3.65;;;3.10;;
72864;SDS011;61000;48.120;11.548;2023-09-18T02:34:55;4.63;;;3.45;;
72864;SDS011;61000;48.120;11.548;2023-09-18T02:37:22;7.05;;;3.70;;
72864;SDS011;61000;48.120;11.548;2023-09-18T02:39:49;6.15;;;3.67;;
72864;SDS011;61000;48.120;11.548;2023-09-18T02:42:16;6.13;;;3.53;;
72864;SDS011;61000;48.120;11.548;2023-09-18T02:44:43;4.32;;;3.72;;
72864;SDS011;61000;48.120;11.548;2023-09-18T02:47:09;8.27;;;3.63;;
72864;SDS011;61000;48.120;11.548;2023-09-18T02:49:38;7.85;;;3.75;;
72864;SDS011;61000;48.120;11.548;2023-09-18T02:52:05;7.72;;;4.28;;
72864;SDS011;61000;48.120;11.548;2023-09-18T02:54:32;6.00;;;3.60;;
72864;SDS011;61000;48.120;11.548;2023-09-18T02:56:59;4.60;;;3.60;;
72864;SDS011;61000;48.120;11.548;2023-09-18T02:59:26;4.32;;;3.25;;
72864;SDS011;61000;48.120;11.548;2023-09-18T03:01:53;3.53;;;2.80;;
72864;SDS011;61000;48.120;11.548;2023-09-18T03:04:20;7.00;;;3.75;;
72864;SDS011;61000;48.120;11.548;2023-09-18T03:06:49;4.78;;;3.58;;
72864;SDS011;61000;48.120;11.548;2023-09-18T03:09:15;4.82;;;3.72;;
72864;SDS011;61000;48.120;11.548;2023-09-18T03:11:44;6.22;;;3.30;;
72864;SDS011;61000;48.120;11.548;2023-09-18T03:14:10;5.35;;;3.42;;
72864;SDS011;61000;48.120;11.548;2023-09-18T03:16:38;5.38;;;3.72;;
72864;SDS011;61000;48.120;11.548;2023-09-18T03:19:05;5.78;;;3.22;;
72864;SDS011;61000;48.120;11.548;2023-09-18T03:21:32;6.88;;;3.42;;
72864;SDS011;61000;48.120;11.548;2023-09-18T03:24:02;6.97;;;3.40;;
72864;SDS011;61000;48.120;11.548;2023-09-18T03:26:29;5.47;;;3.88;;
72864;SDS011;61000;48.120;11.548;2023-09-18T03:28:56;4.47;;;3.47;;
72864;SDS011;61000;48.120;11.548;2023-09-18T03:31:23;6.07;;;3.08;;
72864;SDS011;61000;48.120;11.548;2023-09-18T03:33:50;6.38;;;3.75;;
72864;SDS011;61000;48.120;11.548;2023-09-18T03:36:16;7.20;;;3.70;;
72864;SDS011;61000;48.120;11.548;2023-09-18T03:38:46;3.80;;;3.05;;
72864;SDS011;61000;48.120;11.548;2023-09-18T03:41:15;4.85;;;3.55;;
72864;SDS011;61000;48.120;11.548;2023-09-18T03:43:42;4.82;;;2.88;;
72864;SDS011;61000;48.120;11.548;2023-09-18T03:46:09;4.00;;;3.40;;
72864;SDS011;61000;48.120;11.548;2023-09-18T03:48:45;4.72;;;3.22;;
72864;SDS011;61000;48.120;11.548;2023-09-18T03:51:12;5.07;;;3.70;;
72864;SDS011;61000;48.120;11.548;2023-09-18T03:53:41;6.13;;;4.10;;
72864;SDS011;61000;48.120;11.548;2023-09-18T03:56:07;6.40;;;3.70;;
72864;SDS011;61000;48.120;11.548;2023-09-18T03:58:36;3.47;;;2.95;;
72864;SDS011;61000;48.120;11.548;2023-09-18T04:01:02;6.22;;;3.15;;
72864;SDS011;61000;48.120;11.548;2023-09-18T04:03:29;9.02;;;7.13;;
72864;SDS011;61000;48.120;11.548;2023-09-18T04:05:58;8.05;;;4.22;;
72864;SDS011;61000;48.120;11.548;2023-09-18T04:08:24;4.57;;;3.95;;
72864;SDS011;61000;48.120;11.548;2023-09-18T04:10:52;6.38;;;4.50;;
72864;SDS011;61000;48.120;11.548;2023-09-18T04:13:23;6.93;;;3.72;;
72864;SDS011;61000;48.120;11.548;2023-09-18T04:15:53;7.00;;;3.90;;
72864;SDS011;61000;48.120;11.548;2023-09-18T04:18:22;7.25;;;4.18;;
72864;SDS011;61000;48.120;11.548;2023-09-18T04:20:49;8.23;;;4.68;;
72864;SDS011;61000;48.120;11.548;2023-09-18T04:23:18;5.22;;;3.80;;
72864;SDS011;61000;48.120;11.548;2023-09-18T04:25:46;10.88;;;8.05;;
72864;SDS011;61000;48.120;11.548;2023-09-18T04:28:13;7.43;;;3.90;;
72864;SDS011;61000;48.120;11.548;2023-09-18T04:30:40;5.05;;;4.07;;
72864;SDS011;61000;48.120;11.548;2023-09-18T04:33:09;5.57;;;4.10;;
72864;SDS011;61000;48.120;11.548;2023-09-18T04:35:37;4.63;;;3.67;;
72864;SDS011;61000;48.120;11.548;2023-09-18T04:38:06;5.13;;;4.07;;
72864;SDS011;61000;48.120;11.548;2023-09-18T04:40:33;5.72;;;3.97;;
72864;SDS011;61000;48.120;11.548;2023-09-18T04:43:00;6.95;;;3.50;;
72864;SDS011;61000;48.120;11.548;2023-09-18T04:45:29;8.13;;;3.90;;
72864;SDS011;61000;48.120;11.548;2023-09-18T04:47:57;5.47;;;4.40;;
72864;SDS011;61000;48.120;11.548;2023-09-18T04:50:25;11.32;;;7.80;;
72864;SDS011;61000;48.120;11.548;2023-09-18T04:52:52;8.90;;;4.60;;
72864;SDS011;61000;48.120;11.548;2023-09-18T04:55:21;7.28;;;3.90;;
72864;SDS011;61000;48.120;11.548;2023-09-18T04:57:48;5.72;;;4.07;;
72864;SDS011;61000;48.120;11.548;2023-09-18T05:00:15;4.47;;;3.58;;
72864;SDS011;61000;48.120;11.548;2023-09-18T05:02:42;7.22;;;4.13;;
72864;SDS011;61000;48.120;11.548;2023-09-18T05:05:09;5.43;;;4.00;;
72864;SDS011;61000;48.120;11.548;2023-09-18T05:07:37;6.43;;;5.35;;
72864;SDS011;61000;48.120;11.548;2023-09-18T05:10:04;10.48;;;5.60;;
72864;SDS011;61000;48.120;11.548;2023-09-18T05:12:31;6.05;;;4.00;;
72864;SDS011;61000;48.120;11.548;2023-09-18T05:14:58;6.05;;;3.78;;
72864;SDS011;61000;48.120;11.548;2023-09-18T05:17:38;4.07;;;3.67;;
72864;SDS011;61000;48.120;11.548;2023-09-18T05:20:08;5.60;;;3.60;;
72864;SDS011;61000;48.120;11.548;2023-09-18T05:22:38;4.45;;;3.83;;
72864;SDS011;61000;48.120;11.548;2023-09-18T05:25:05;4.80;;;3.60;;
72864;SDS011;61000;48.120;11.548;2023-09-18T05:27:33;6.90;;;4.07;;
72864;SDS011;61000;48.120;11.548;2023-09-18T05:29:59;9.43;;;4.38;;
72864;SDS011;61000;48.120;11.548;2023-09-18T05:32:26;8.38;;;4.22;;
72864;SDS011;61000;48.120;11.548;2023-09-18T05:34:53;7.50;;;4.50;;
72864;SDS011;61000;48.120;11.548;2023-09-18T05:37:20;7.70;;;4.22;;
72864;SDS011;61000;48.120;11.548;2023-09-18T05:39:48;7.47;;;4.03;;
72864;SDS011;61000;48.120;11.548;2023-09-18T05:42:15;6.13;;;4.10;;
72864;SDS011;61000;48.120;11.548;2023-09-18T05:44:42;13.90;;;4.63;;
72864;SDS011;61000;48.120;11.548;2023-09-18T05:47:09;7.03;;;4.30;;
72864;SDS011;61000;48.120;11.548;2023-09-18T05:49:36;7.60;;;4.38;;
72864;SDS011;61000;48.120;11.548;2023-09-18T05:52:04;7.80;;;4.32;;
72864;SDS011;61000;48.120;11.548;2023-09-18T05:54:31;7.68;;;3.92;;
72864;SDS011;61000;48.120;11.548;2023-09-18T05:56:59;6.85;;;4.03;;
72864;SDS011;61000;48.120;11.548;2023-09-18T05:59:27;21.38;;;7.57;;
72864;SDS011;61000;48.120;11.548;2023-09-18T06:01:54;35.95;;;9.30;;
72864;SDS011;61000;48.120;11.548;2023-09-18T06:04:21;19.10;;;8.77;;
72864;SDS011;61000;48.120;11.548;2023-09-18T06:06:48;18.85;;;8.55;;
72864;SDS011;61000;48.120;11.548;2023-09-18T06:09:16;24.17;;;8.25;;
72864;SDS011;61000;48.120;11.548;2023-09-18T06:11:43;16.13;;;5.80;;
72864;SDS011;61000;48.120;11.548;2023-09-18T06:14:14;10.85;;;4.45;;
72864;SDS011;61000;48.120;11.548;2023-09-18T06:16:41;10.90;;;4.47;;
72864;SDS011;61000;48.120;11.548;2023-09-18T06:19:08;10.57;;;4.03;;
72864;SDS011;61000;48.120;11.548;2023-09-18T06:21:35;9.40;;;4.47;;
72864;SDS011;61000;48.120;11.548;2023-09-18T06:24:02;11.35;;;4.30;;
72864;SDS011;61000;48.120;11.548;2023-09-18T06:26:29;7.95;;;4.28;;
72864;SDS011;61000;48.120;11.548;2023-09-18T06:28:56;6.43;;;3.92;;
72864;SDS011;61000;48.120;11.548;2023-09-18T06:31:24;11.38;;;5.18;;
72864;SDS011;61000;48.120;11.548;2023-09-18T06:33:51;8.25;;;4.30;;
72864;SDS011;61000;48.120;11.548;2023-09-18T06:36:18;11.02;;;4.28;;
72864;SDS011;61000;48.120;11.548;2023-09-18T06:38:45;5.65;;;4.32;;
72864;SDS011;61000;48.120;11.548;2023-09-18T06:41:12;9.65;;;4.22;;
72864;SDS011;61000;48.120;11.548;2023-09-18T06:43:39;6.20;;;3.97;;
72864;SDS011;61000;48.120;11.548;2023-09-18T06:46:06;7.78;;;4.55;;
72864;SDS011;61000;48.120;11.548;2023-09-18T06:48:35;7.57;;;4.38;;
72864;SDS011;61000;48.120;11.548;2023-09-18T06:51:02;5.47;;;4.63;;
72864;SDS011;61000;48.120;11.548;2023-09-18T06:53:29;6.57;;;3.85;;
72864;SDS011;61000;48.120;11.548;2023-09-18T06:55:56;5.85;;;4.85;;
72864;SDS011;61000;48.120;11.548;2023-09-18T06:58:22;9.13;;;3.83;;
72864;SDS011;61000;48.120;11.548;2023-09-18T07:00:49;4.82;;;3.55;;
72864;SDS011;61000;48.120;11.548;2023-09-18T07:03:16;5.15;;;3.85;;
72864;SDS011;61000;48.120;11.548;2023-09-18T07:05:45;9.32;;;3.78;;
72864;SDS011;61000;48.120;11.548;2023-09-18T07:08:12;10.07;;;4.30;;
72864;SDS011;61000;48.120;11.548;2023-09-18T07:10:41;6.03;;;4.47;;
72864;SDS011;61000;48.120;11.548;2023-09-18T07:13:08;4.78;;;4.20;;
72864;SDS011;61000;48.120;11.548;2023-09-18T07:15:35;10.73;;;4.05;;
72864;SDS011;61000;48.120;11.548;2023-09-18T07:18:01;10.50;;;3.75;;
72864;SDS011;61000;48.120;11.548;2023-09-18T07:20:29;10.18;;;4.20;;
72864;SDS011;61000;48.120;11.548;2023-09-18T07:22:58;9.40;;;4.05;;
72864;SDS011;61000;48.120;11.548;2023-09-18T07:25:25;7.68;;;3.50;;
72864;SDS011;61000;48.120;11.548;2023-09-18T07:27:52;8.10;;;3.65;;
72864;SDS011;61000;48.120;11.548;2023-09-18T07:30:19;6.30;;;3.95;;
72864;SDS011;61000;48.120;11.548;2023-09-18T07:32:47;7.63;;;3.42;;
72864;SDS011;61000;48.120;11.548;2023-09-18T07:35:13;6.70;;;4.97;;
72864;SDS011;61000;48.120;11.548;2023-09-18T07:37:41;5.65;;;3.33;;
72864;SDS011;61000;48.120;11.548;2023-09-18T07:40:11;7.97;;;3.55;;
72864;SDS011;61000;48.120;11.548;2023-09-18T07:42:37;8.68;;;4.47;;
72864;SDS011;61000;48.120;11.548;2023-09-18T07:45:05;6.63;;;3.47;;
72864;SDS011;61000;48.120;11.548;2023-09-18T07:47:32;10.88;;;3.97;;
72864;SDS011;61000;48.120;11.548;2023-09-18T07:49:59;6.90;;;4.15;;
72864;SDS011;61000;48.120;11.548;2023-09-18T07:52:26;6.90;;;4.30;;
72864;SDS011;61000;48.120;11.548;2023-09-18T07:54:53;7.32;;;3.50;;
72864;SDS011;61000;48.120;11.548;2023-09-18T07:57:21;6.72;;;4.35;;
72864;SDS011;61000;48.120;11.548;2023-09-18T07:59:49;8.68;;;4.20;;
72864;SDS011;61000;48.120;11.548;2023-09-18T08:02:16;10.48;;;4.60;;
72864;SDS011;61000;48.120;11.548;2023-09-18T08:04:44;7.43;;;3.80;;
72864;SDS011;61000;48.120;11.548;2023-09-18T08:07:11;10.07;;;4.00;;
72864;SDS011;61000;48.120;11.548;2023-09-18T08:09:37;5.63;;;4.05;;
72864;SDS011;61000;48.120;11.548;2023-09-18T08:12:05;12.70;;;4.03;;
72864;SDS011;61000;48.120;11.548;2023-09-18T08:14:35;7.32;;;3.78;;
72864;SDS011;61000;48.120;11.548;2023-09-18T08:17:03;9.93;;;3.45;;
72864;SDS011;61000;48.120;11.548;2023-09-18T08:19:30;8.88;;;3.80;;
72864;SDS011;61000;48.120;11.548;2023-09-18T08:21:57;5.18;;;3.60;;
72864;SDS011;61000;48.120;11.548;2023-09-18T08:24:25;7.60;;;3.45;;
72864;SDS011;61000;48.120;11.548;2023-09-18T08:26:52;10.05;;;3.90;;
72864;SDS011;61000;48.120;11.548;2023-09-18T08:29:20;8.43;;;4.40;;
72864;SDS011;61000;48.120;11.548;2023-09-18T08:31:49;4.70;;;3.47;;
72864;SDS011;61000;48.120;11.548;2023-09-18T08:34:16;4.53;;;3.58;;
72864;SDS011;61000;48.120;11.548;2023-09-18T08:36:43;8.10;;;3.50;;
72864;SDS011;61000;48.120;11.548;2023-09-18T08:39:10;5.55;;;3.88;;
72864;SDS011;61000;48.120;11.548;2023-09-18T08:41:38;9.23;;;4.93;;
72864;SDS011;61000;48.120;11.548;2023-09-18T08:44:08;6.15;;;4.40;;
72864;SDS011;61000;48.120;11.548;2023-09-18T08:46:36;9.27;;;4.05;;
72864;SDS011;61000;48.120;11.548;2023-09-18T08:49:05;5.72;;;3.95;;
72864;SDS011;61000;48.120;11.548;2023-09-18T08:51:33;6.18;;;3.65;;
72864;SDS011;61000;48.120;11.548;2023-09-18T08:54:01;7.75;;;4.15;;
72864;SDS011;61000;48.120;11.548;2023-09-18T08:56:30;16.23;;;4.55;;
72864;SDS011;61000;48.120;11.548;2023-09-18T08:58:58;16.58;;;4.82;;
72864;SDS011;61000;48.120;11.548;2023-09-18T09:01:25;11.23;;;4.03;;
72864;SDS011;61000;48.120;11.548;2023-09-18T09:03:52;15.85;;;4.88;;
72864;SDS011;61000;48.120;11.548;2023-09-18T09:06:21;8.32;;;4.85;;
72864;SDS011;61000;48.120;11.548;2023-09-18T09:08:49;6.50;;;3.95;;
72864;SDS011;61000;48.120;11.548;2023-09-18T09:11:16;9.45;;;3.95;;
72864;SDS011;61000;48.120;11.548;2023-09-18T09:13:44;6.57;;;4.05;;
72864;SDS011;61000;48.120;11.548;2023-09-18T09:16:11;8.60;;;3.83;;
72864;SDS011;61000;48.120;11.548;2023-09-18T09:18:47;6.90;;;3.80;;
72864;SDS011;61000;48.120;11.548;2023-09-18T09:21:15;7.78;;;3.88;;
72864;SDS011;61000;48.120;11.548;2023-09-18T09:23:47;9.02;;;3.85;;
72864;SDS011;61000;48.120;11.548;2023-09-18T09:26:17;5.63;;;3.60;;
72864;SDS011;61000;48.120;11.548;2023-09-18T09:28:45;10.88;;;4.10;;
72864;SDS011;61000;48.120;11.548;2023-09-18T09:31:22;11.10;;;3.70;;
72864;SDS011;61000;48.120;11.548;2023-09-18T09:33:53;11.13;;;3.97;;
72864;SDS011;61000;48.120;11.548;2023-09-18T09:36:20;10.70;;;4.28;;
72864;SDS011;61000;48.120;11.548;2023-09-18T09:38:50;9.95;;;3.53;;
72864;SDS011;61000;48.120;11.548;2023-09-18T09:41:21;28.40;;;5.70;;
72864;SDS011;61000;48.120;11.548;2023-09-18T09:43:48;17.00;;;3.90;;
72864;SDS011;61000;48.120;11.548;2023-09-18T09:46:16;13.43;;;5.53;;
72864;SDS011;61000;48.120;11.548;2023-09-18T09:48:59;8.70;;;3.58;;
72864;SDS011;61000;48.120;11.548;2023-09-18T09:51:27;15.02;;;4.72;;
72864;SDS011;61000;48.120;11.548;2023-09-18T09:53:56;11.63;;;3.90;;
72864;SDS011;61000;48.120;11.548;2023-09-18T09:59:06;10.02;;;4.60;;
72864;SDS011;61000;48.120;11.548;2023-09-18T10:01:33;10.32;;;3.97;;
72864;SDS011;61000;48.120;11.548;2023-09-18T10:04:01;7.70;;;3.50;;
72864;SDS011;61000;48.120;11.548;2023-09-18T10:06:32;8.27;;;3.13;;
72864;SDS011;61000;48.120;11.548;2023-09-18T10:09:05;9.48;;;3.55;;
72864;SDS011;61000;48.120;11.548;2023-09-18T10:11:37;8.60;;;3.50;;
72864;SDS011;61000;48.120;11.548;2023-09-18T10:14:07;6.80;;;3.40;;
72864;SDS011;61000;48.120;11.548;2023-09-18T10:16:39;8.13;;;3.35;;
72864;SDS011;61000;48.120;11.548;2023-09-18T10:19:11;10.23;;;4.45;;
72864;SDS011;61000;48.120;11.548;2023-09-18T10:21:48;15.13;;;3.70;;
72864;SDS011;61000;48.120;11.548;2023-09-18T10:24:25;5.82;;;3.65;;
72864;SDS011;61000;48.120;11.548;2023-09-18T10:26:54;7.60;;;3.15;;
72864;SDS011;61000;48.120;11.548;2023-09-18T10:29:23;9.43;;;3.42;;
72864;SDS011;61000;48.120;11.548;2023-09-18T10:31:51;6.30;;;3.20;;
72864;SDS011;61000;48.120;11.548;2023-09-18T10:34:19;9.25;;;3.17;;
72864;SDS011;61000;48.120;11.548;2023-09-18T10:36:47;7.13;;;3.15;;
72864;SDS011;61000;48.120;11.548;2023-09-18T10:39:16;12.75;;;3.00;;
72864;SDS011;61000;48.120;11.548;2023-09-18T10:41:47;10.27;;;3.55;;
72864;SDS011;61000;48.120;11.548;2023-09-18T10:44:15;9.57;;;3.75;;
72864;SDS011;61000;48.120;11.548;2023-09-18T10:46:42;10.45;;;3.95;;
72864;SDS011;61000;48.120;11.548;2023-09-18T10:49:09;11.10;;;3.15;;
72864;SDS011;61000;48.120;11.548;2023-09-18T10:51:37;13.00;;;3.15;;
72864;SDS011;61000;48.120;11.548;2023-09-18T10:54:07;14.18;;;4.22;;
72864;SDS011;61000;48.120;11.548;2023-09-18T10:56:34;7.28;;;3.28;;
72864;SDS011;61000;48.120;11.548;2023-09-18T10:59:05;13.52;;;3.90;;
72864;SDS011;61000;48.120;11.548;2023-09-18T11:01:35;10.20;;;3.47;;
72864;SDS011;61000;48.120;11.548;2023-09-18T11:04:03;10.07;;;3.90;;
72864;SDS011;61000;48.120;11.548;2023-09-18T11:09:32;10.88;;;3.67;;
72864;SDS011;61000;48.120;11.548;2023-09-18T11:12:08;11.55;;;4.22;;
72864;SDS011;61000;48.120;11.548;2023-09-18T11:14:44;10.80;;;3.75;;
72864;SDS011;61000;48.120;11.548;2023-09-18T11:17:33;16.38;;;4.38;;
72864;SDS011;61000;48.120;11.548;2023-09-18T11:20:08;9.27;;;3.50;;
72864;SDS011;61000;48.120;11.548;2023-09-18T11:22:47;9.75;;;4.28;;
72864;SDS011;61000;48.120;11.548;2023-09-18T11:28:02;13.45;;;3.40;;
72864;SDS011;61000;48.120;11.548;2023-09-18T11:30:32;14.88;;;3.97;;
72864;SDS011;61000;48.120;11.548;2023-09-18T11:33:02;15.18;;;5.97;;
72864;SDS011;61000;48.120;11.548;2023-09-18T11:35:30;16.67;;;5.22;;
72864;SDS011;61000;48.120;11.548;2023-09-18T11:38:05;11.73;;;4.10;;
72864;SDS011;61000;48.120;11.548;2023-09-18T11:40:34;9.60;;;4.00;;
72864;SDS011;61000;48.120;11.548;2023-09-18T11:43:23;7.70;;;3.38;;
72864;SDS011;61000;48.120;11.548;2023-09-18T11:45:57;6.68;;;2.28;;
72864;SDS011;61000;48.120;11.548;2023-09-18T11:48:25;7.97;;;2.80;;
72864;SDS011;61000;48.120;11.548;2023-09-18T11:50:55;9.13;;;3.13;;
72864;SDS011;61000;48.120;11.548;2023-09-18T11:53:23;9.38;;;2.20;;
72864;SDS011;61000;48.120;11.548;2023-09-18T11:55:52;6.20;;;2.25;;
72864;SDS011;61000;48.120;11.548;2023-09-18T11:58:20;8.00;;;2.33;;
72864;SDS011;61000;48.120;11.548;2023-09-18T12:00:48;10.20;;;2.15;;
72864;SDS011;61000;48.120;11.548;2023-09-18T12:03:18;9.60;;;2.22;;
72864;SDS011;61000;48.120;11.548;2023-09-18T12:05:54;7.68;;;2.33;;
72864;SDS011;61000;48.120;11.548;2023-09-18T12:08:22;7.15;;;2.25;;
72864;SDS011;61000;48.120;11.548;2023-09-18T12:10:51;5.50;;;1.95;;
72864;SDS011;61000;48.120;11.548;2023-09-18T12:13:18;5.65;;;1.65;;
72864;SDS011;61000;48.120;11.548;2023-09-18T12:15:46;3.47;;;1.92;;
72864;SDS011;61000;48.120;11.548;2023-09-18T12:18:14;7.25;;;1.92;;
72864;SDS011;61000;48.120;11.548;2023-09-18T12:20:46;4.70;;;2.13;;
72864;SDS011;61000;48.120;11.548;2023-09-18T12:23:14;6.03;;;2.15;;
72864;SDS011;61000;48.120;11.548;2023-09-18T12:25:41;4.43;;;1.73;;
72864;SDS011;61000;48.120;11.548;2023-09-18T12:28:12;6.50;;;2.65;;
72864;SDS011;61000;48.120;11.548;2023-09-18T12:30:40;3.22;;;1.48;;
72864;SDS011;61000;48.120;11.548;2023-09-18T12:33:07;6.00;;;2.03;;
72864;SDS011;61000;48.120;11.548;2023-09-18T12:35:34;3.85;;;1.73;;
72864;SDS011;61000;48.120;11.548;2023-09-18T12:38:12;4.38;;;2.40;;
72864;SDS011;61000;48.120;11.548;2023-09-18T12:40:40;4.80;;;2.25;;
72864;SDS011;61000;48.120;11.548;2023-09-18T12:43:09;3.58;;;1.95;;
72864;SDS011;61000;48.120;11.548;2023-09-18T12:45:36;7.70;;;1.77;;
72864;SDS011;61000;48.120;11.548;2023-09-18T12:48:03;4.05;;;1.50;;
72864;SDS011;61000;48.120;11.548;2023-09-18T12:50:32;2.92;;;1.50;;
72864;SDS011;61000;48.120;11.548;2023-09-18T12:53:08;4.20;;;1.60;;
72864;SDS011;61000;48.120;11.548;2023-09-18T12:55:36;3.78;;;1.65;;
72864;SDS011;61000;48.120;11.548;2023-09-18T12:58:03;4.43;;;1.58;;
72864;SDS011;61000;48.120;11.548;2023-09-18T13:00:30;5.25;;;1.60;;
72864;SDS011;61000;48.120;11.548;2023-09-18T13:02:57;2.28;;;1.40;;
72864;SDS011;61000;48.120;11.548;2023-09-18T13:05:24;3.45;;;1.48;;
72864;SDS011;61000;48.120;11.548;2023-09-18T13:07:51;3.08;;;1.70;;
72864;SDS011;61000;48.120;11.548;2023-09-18T13:10:20;4.35;;;1.98;;
72864;SDS011;61000;48.120;11.548;2023-09-18T13:12:48;4.38;;;1.63;;
72864;SDS011;61000;48.120;11.548;2023-09-18T13:15:24;2.55;;;1.58;;
72864;SDS011;61000;48.120;11.548;2023-09-18T13:17:53;4.30;;;1.92;;
72864;SDS011;61000;48.120;11.548;2023-09-18T13:20:21;3.85;;;2.50;;
72864;SDS011;61000;48.120;11.548;2023-09-18T13:22:50;3.25;;;2.10;;
72864;SDS011;61000;48.120;11.548;2023-09-18T13:25:22;3.83;;;2.63;;
72864;SDS011;61000;48.120;11.548;2023-09-18T13:27:50;3.50;;;1.55;;
72864;SDS011;61000;48.120;11.548;2023-09-18T13:30:18;4.38;;;2.08;;
72864;SDS011;61000;48.120;11.548;2023-09-18T13:32:47;4.75;;;2.72;;
72864;SDS011;61000;48.120;11.548;2023-09-18T13:35:15;2.60;;;1.90;;
72864;SDS011;61000;48.120;11.548;2023-09-18T13:37:42;6.22;;;2.60;;
72864;SDS011;61000;48.120;11.548;2023-09-18T13:40:10;2.13;;;1.60;;
72864;SDS011;61000;48.120;11.548;2023-09-18T13:42:39;4.35;;;2.03;;
72864;SDS011;61000;48.120;11.548;2023-09-18T13:45:06;4.20;;;1.75;;
72864;SDS011;61000;48.120;11.548;2023-09-18T13:47:34;3.38;;;2.25;;
72864;SDS011;61000;48.120;11.548;2023-09-18T13:50:02;2.83;;;1.38;;
72864;SDS011;61000;48.120;11.548;2023-09-18T13:52:30;9.38;;;3.08;;
72864;SDS011;61000;48.120;11.548;2023-09-18T13:54:58;5.32;;;3.20;;
72864;SDS011;61000;48.120;11.548;2023-09-18T13:57:25;4.32;;;2.15;;
72864;SDS011;61000;48.120;11.548;2023-09-18T13:59:53;4.88;;;2.20;;
72864;SDS011;61000;48.120;11.548;2023-09-18T14:02:20;3.83;;;1.80;;
72864;SDS011;61000;48.120;11.548;2023-09-18T14:04:48;6.57;;;3.50;;
72864;SDS011;61000;48.120;11.548;2023-09-18T14:07:15;5.35;;;1.80;;
72864;SDS011;61000;48.120;11.548;2023-09-18T14:09:42;1.88;;;1.48;;
72864;SDS011;61000;48.120;11.548;2023-09-18T14:12:11;3.08;;;2.05;;
72864;SDS011;61000;48.120;11.548;2023-09-18T14:14:38;3.45;;;1.80;;
72864;SDS011;61000;48.120;11.548;2023-09-18T14:17:07;4.63;;;1.67;;
72864;SDS011;61000;48.120;11.548;2023-09-18T14:19:34;5.82;;;1.58;;
72864;SDS011;61000;48.120;11.548;2023-09-18T14:22:03;3.45;;;1.95;;
72864;SDS011;61000;48.120;11.548;2023-09-18T14:24:30;1.70;;;1.40;;
72864;SDS011;61000;48.120;11.548;2023-09-18T14:26:59;5.35;;;1.60;;
72864;SDS011;61000;48.120;11.548;2023-09-18T14:29:26;6.03;;;2.35;;
72864;SDS011;61000;48.120;11.548;2023-09-18T14:31:53;3.25;;;1.67;;
72864;SDS011;61000;48.120;11.548;2023-09-18T14:34:23;2.10;;;1.30;;
72864;SDS011;61000;48.120;11.548;2023-09-18T14:36:50;4.28;;;1.38;;
72864;SDS011;61000;48.120;11.548;2023-09-18T14:39:17;4.32;;;1.88;;
72864;SDS011;61000;48.120;11.548;2023-09-18T14:41:44;3.55;;;1.52;;
72864;SDS011;61000;48.120;11.548;2023-09-18T14:44:12;4.75;;;1.90;;
72864;SDS011;61000;48.120;11.548;2023-09-18T14:46:40;2.45;;;2.08;;
72864;SDS011;61000;48.120;11.548;2023-09-18T14:49:08;1.98;;;1.58;;